sensor_id;sensor_type;location;lat;lon;timestamp;temperature;humidity
664;DHT22;314;48.770;9.246;2022-07-23T00:01:22;26.10;63.70
664;DHT22;314;48.770;9.246;2022-07-23T00:03:48;26.10;63.90
664;DHT22;314;48.770;9.246;2022-07-23T00:06:14;26.10;63.90
664;DHT22;314;48.770;9.246;2022-07-23T00:08:40;26.00;64.40
664;DHT22;314;48.770;9.246;2022-07-23T00:11:06;26.00;64.10
664;DHT22;314;48.770;9.246;2022-07-23T00:13:32;26.00;64.20
664;DHT22;314;48.770;9.246;2022-07-23T00:15:57;26.00;63.80
664;DHT22;314;48.770;9.246;2022-07-23T00:18:23;26.00;63.90
664;DHT22;314;48.770;9.246;2022-07-23T00:20:49;26.00;63.70
664;DHT22;314;48.770;9.246;2022-07-23T00:23:15;25.90;63.40
664;DHT22;314;48.770;9.246;2022-07-23T00:25:41;25.90;63.40
664;DHT22;314;48.770;9.246;2022-07-23T00:28:06;25.90;62.30
664;DHT22;314;48.770;9.246;2022-07-23T00:30:32;25.90;62.30
664;DHT22;314;48.770;9.246;2022-07-23T00:33:04;25.90;61.90
664;DHT22;314;48.770;9.246;2022-07-23T00:35:32;25.90;61.90
664;DHT22;314;48.770;9.246;2022-07-23T00:37:59;25.90;62.00
664;DHT22;314;48.770;9.246;2022-07-23T00:40:26;25.90;62.10
664;DHT22;314;48.770;9.246;2022-07-23T00:42:52;25.90;62.40
664;DHT22;314;48.770;9.246;2022-07-23T00:45:19;25.90;63.30
664;DHT22;314;48.770;9.246;2022-07-23T00:47:45;25.80;66.00
664;DHT22;314;48.770;9.246;2022-07-23T00:50:11;25.60;67.60
664;DHT22;314;48.770;9.246;2022-07-23T00:52:38;25.50;71.20
664;DHT22;314;48.770;9.246;2022-07-23T00:55:05;25.30;72.40
664;DHT22;314;48.770;9.246;2022-07-23T00:57:31;25.10;71.60
664;DHT22;314;48.770;9.246;2022-07-23T00:59:57;25.00;74.20
664;DHT22;314;48.770;9.246;2022-07-23T01:02:24;24.90;74.40
664;DHT22;314;48.770;9.246;2022-07-23T01:04:50;24.80;74.10
664;DHT22;314;48.770;9.246;2022-07-23T01:07:16;24.70;72.80
664;DHT22;314;48.770;9.246;2022-07-23T01:09:44;24.50;73.80
664;DHT22;314;48.770;9.246;2022-07-23T01:12:10;24.40;73.10
664;DHT22;314;48.770;9.246;2022-07-23T01:14:36;24.50;74.60
664;DHT22;314;48.770;9.246;2022-07-23T01:17:02;24.40;72.80
664;DHT22;314;48.770;9.246;2022-07-23T01:19:28;24.30;73.90
664;DHT22;314;48.770;9.246;2022-07-23T01:21:57;24.40;72.30
664;DHT22;314;48.770;9.246;2022-07-23T01:24:24;24.30;72.70
664;DHT22;314;48.770;9.246;2022-07-23T01:26:50;24.30;72.10
664;DHT22;314;48.770;9.246;2022-07-23T01:29:16;24.30;72.00
664;DHT22;314;48.770;9.246;2022-07-23T01:31:43;24.30;72.10
664;DHT22;314;48.770;9.246;2022-07-23T01:34:09;24.30;71.90
664;DHT22;314;48.770;9.246;2022-07-23T01:36:36;24.30;71.20
664;DHT22;314;48.770;9.246;2022-07-23T01:39:03;24.30;73.40
664;DHT22;314;48.770;9.246;2022-07-23T01:41:29;24.30;71.40
664;DHT22;314;48.770;9.246;2022-07-23T01:43:55;24.30;72.30
664;DHT22;314;48.770;9.246;2022-07-23T01:46:21;24.40;70.10
664;DHT22;314;48.770;9.246;2022-07-23T01:48:47;24.40;70.60
664;DHT22;314;48.770;9.246;2022-07-23T01:51:13;24.40;71.70
664;DHT22;314;48.770;9.246;2022-07-23T01:53:38;24.40;71.40
664;DHT22;314;48.770;9.246;2022-07-23T01:56:04;24.30;74.60
664;DHT22;314;48.770;9.246;2022-07-23T01:58:30;24.20;72.80
664;DHT22;314;48.770;9.246;2022-07-23T02:00:57;24.20;73.00
664;DHT22;314;48.770;9.246;2022-07-23T02:03:22;24.10;72.30
664;DHT22;314;48.770;9.246;2022-07-23T02:05:49;24.10;72.60
664;DHT22;314;48.770;9.246;2022-07-23T02:08:15;24.10;72.00
664;DHT22;314;48.770;9.246;2022-07-23T02:10:41;24.10;71.40
664;DHT22;314;48.770;9.246;2022-07-23T02:13:07;24.00;71.40
664;DHT22;314;48.770;9.246;2022-07-23T02:15:33;24.00;71.30
664;DHT22;314;48.770;9.246;2022-07-23T02:17:59;24.00;71.70
664;DHT22;314;48.770;9.246;2022-07-23T02:20:25;24.00;71.70
664;DHT22;314;48.770;9.246;2022-07-23T02:22:51;23.90;72.30
664;DHT22;314;48.770;9.246;2022-07-23T02:25:17;23.90;73.10
664;DHT22;314;48.770;9.246;2022-07-23T02:27:43;23.90;73.50
664;DHT22;314;48.770;9.246;2022-07-23T02:30:09;23.90;73.80
664;DHT22;314;48.770;9.246;2022-07-23T02:32:36;23.80;73.40
664;DHT22;314;48.770;9.246;2022-07-23T02:35:03;23.80;73.70
664;DHT22;314;48.770;9.246;2022-07-23T02:37:29;23.80;74.40
664;DHT22;314;48.770;9.246;2022-07-23T02:39:55;23.80;74.80
664;DHT22;314;48.770;9.246;2022-07-23T02:42:21;23.70;75.10
664;DHT22;314;48.770;9.246;2022-07-23T02:44:49;23.60;75.30
664;DHT22;314;48.770;9.246;2022-07-23T02:47:15;23.60;75.50
664;DHT22;314;48.770;9.246;2022-07-23T02:49:41;23.60;75.30
664;DHT22;314;48.770;9.246;2022-07-23T02:52:07;23.50;75.60
664;DHT22;314;48.770;9.246;2022-07-23T02:54:36;23.50;75.90
664;DHT22;314;48.770;9.246;2022-07-23T02:57:01;23.40;75.80
664;DHT22;314;48.770;9.246;2022-07-23T02:59:27;23.40;75.80
664;DHT22;314;48.770;9.246;2022-07-23T03:01:53;23.40;76.00
664;DHT22;314;48.770;9.246;2022-07-23T03:04:19;23.40;76.00
664;DHT22;314;48.770;9.246;2022-07-23T03:06:44;23.30;76.40
664;DHT22;314;48.770;9.246;2022-07-23T03:09:10;23.30;76.30
664;DHT22;314;48.770;9.246;2022-07-23T03:11:36;23.40;75.50
664;DHT22;314;48.770;9.246;2022-07-23T03:14:02;23.40;75.60
664;DHT22;314;48.770;9.246;2022-07-23T03:16:27;23.40;75.90
664;DHT22;314;48.770;9.246;2022-07-23T03:18:53;23.40;76.00
664;DHT22;314;48.770;9.246;2022-07-23T03:21:19;23.40;75.80
664;DHT22;314;48.770;9.246;2022-07-23T03:23:45;23.40;76.00
664;DHT22;314;48.770;9.246;2022-07-23T03:26:11;23.40;75.50
664;DHT22;314;48.770;9.246;2022-07-23T03:28:36;23.40;74.90
664;DHT22;314;48.770;9.246;2022-07-23T03:31:02;23.40;74.60
664;DHT22;314;48.770;9.246;2022-07-23T03:33:28;23.50;74.50
664;DHT22;314;48.770;9.246;2022-07-23T03:35:53;23.50;74.20
664;DHT22;314;48.770;9.246;2022-07-23T03:38:19;23.60;74.50
664;DHT22;314;48.770;9.246;2022-07-23T03:40:45;23.50;74.60
664;DHT22;314;48.770;9.246;2022-07-23T03:43:11;23.50;75.30
664;DHT22;314;48.770;9.246;2022-07-23T03:45:37;23.60;75.20
664;DHT22;314;48.770;9.246;2022-07-23T03:48:03;23.50;76.00
664;DHT22;314;48.770;9.246;2022-07-23T03:50:28;23.50;76.70
664;DHT22;314;48.770;9.246;2022-07-23T03:52:54;23.50;77.00
664;DHT22;314;48.770;9.246;2022-07-23T03:55:20;23.30;77.60
664;DHT22;314;48.770;9.246;2022-07-23T03:57:45;23.30;77.00
664;DHT22;314;48.770;9.246;2022-07-23T04:00:12;23.30;77.10
664;DHT22;314;48.770;9.246;2022-07-23T04:02:39;23.20;77.30
664;DHT22;314;48.770;9.246;2022-07-23T04:05:06;23.20;77.70
664;DHT22;314;48.770;9.246;2022-07-23T04:07:32;23.10;77.70
664;DHT22;314;48.770;9.246;2022-07-23T04:09:58;23.10;77.60
664;DHT22;314;48.770;9.246;2022-07-23T04:12:24;23.10;77.80
664;DHT22;314;48.770;9.246;2022-07-23T04:14:50;23.10;78.50
664;DHT22;314;48.770;9.246;2022-07-23T04:17:16;23.00;78.90
664;DHT22;314;48.770;9.246;2022-07-23T04:19:42;23.00;78.40
664;DHT22;314;48.770;9.246;2022-07-23T04:22:10;23.10;78.30
664;DHT22;314;48.770;9.246;2022-07-23T04:24:36;23.10;78.10
664;DHT22;314;48.770;9.246;2022-07-23T04:27:02;23.10;78.00
664;DHT22;314;48.770;9.246;2022-07-23T04:29:28;23.10;77.60
664;DHT22;314;48.770;9.246;2022-07-23T04:31:54;23.10;77.70
664;DHT22;314;48.770;9.246;2022-07-23T04:34:20;23.20;77.40
664;DHT22;314;48.770;9.246;2022-07-23T04:36:46;23.20;77.10
664;DHT22;314;48.770;9.246;2022-07-23T04:39:12;23.30;77.10
664;DHT22;314;48.770;9.246;2022-07-23T04:41:37;23.40;77.00
664;DHT22;314;48.770;9.246;2022-07-23T04:44:03;23.40;76.70
664;DHT22;314;48.770;9.246;2022-07-23T04:46:29;23.50;76.20
664;DHT22;314;48.770;9.246;2022-07-23T04:48:55;23.50;76.60
664;DHT22;314;48.770;9.246;2022-07-23T04:51:21;23.50;76.70
664;DHT22;314;48.770;9.246;2022-07-23T04:53:47;23.50;76.30
664;DHT22;314;48.770;9.246;2022-07-23T04:56:13;23.50;76.20
664;DHT22;314;48.770;9.246;2022-07-23T04:58:38;23.50;75.60
664;DHT22;314;48.770;9.246;2022-07-23T05:01:04;23.50;76.00
664;DHT22;314;48.770;9.246;2022-07-23T05:03:30;23.50;76.00
664;DHT22;314;48.770;9.246;2022-07-23T05:05:56;23.60;75.60
664;DHT22;314;48.770;9.246;2022-07-23T05:08:22;23.60;76.00
664;DHT22;314;48.770;9.246;2022-07-23T05:10:48;23.60;75.90
664;DHT22;314;48.770;9.246;2022-07-23T05:13:17;23.60;76.20
664;DHT22;314;48.770;9.246;2022-07-23T05:15:43;23.70;76.00
664;DHT22;314;48.770;9.246;2022-07-23T05:18:09;23.80;75.90
664;DHT22;314;48.770;9.246;2022-07-23T05:20:35;23.80;75.80
664;DHT22;314;48.770;9.246;2022-07-23T05:23:01;23.90;75.80
664;DHT22;314;48.770;9.246;2022-07-23T05:25:27;24.00;75.10
664;DHT22;314;48.770;9.246;2022-07-23T05:27:53;24.10;75.10
664;DHT22;314;48.770;9.246;2022-07-23T05:30:19;24.10;75.50
664;DHT22;314;48.770;9.246;2022-07-23T05:32:44;24.20;76.30
664;DHT22;314;48.770;9.246;2022-07-23T05:35:10;24.10;75.30
664;DHT22;314;48.770;9.246;2022-07-23T05:37:36;24.20;75.60
664;DHT22;314;48.770;9.246;2022-07-23T05:40:07;24.20;75.50
664;DHT22;314;48.770;9.246;2022-07-23T05:42:38;24.40;74.60
664;DHT22;314;48.770;9.246;2022-07-23T05:45:05;24.50;74.50
664;DHT22;314;48.770;9.246;2022-07-23T05:47:51;24.60;74.40
664;DHT22;314;48.770;9.246;2022-07-23T05:50:17;24.60;73.70
664;DHT22;314;48.770;9.246;2022-07-23T05:52:43;24.60;74.50
664;DHT22;314;48.770;9.246;2022-07-23T05:55:10;24.70;74.20
664;DHT22;314;48.770;9.246;2022-07-23T05:57:38;24.70;75.30
664;DHT22;314;48.770;9.246;2022-07-23T06:00:06;24.80;75.20
664;DHT22;314;48.770;9.246;2022-07-23T06:02:32;24.90;74.40
664;DHT22;314;48.770;9.246;2022-07-23T06:04:58;24.90;73.80
664;DHT22;314;48.770;9.246;2022-07-23T06:07:24;24.90;73.90
664;DHT22;314;48.770;9.246;2022-07-23T06:09:50;25.00;72.70
664;DHT22;314;48.770;9.246;2022-07-23T06:12:16;25.10;73.10
664;DHT22;314;48.770;9.246;2022-07-23T06:14:42;25.10;73.40
664;DHT22;314;48.770;9.246;2022-07-23T06:17:08;25.20;73.10
664;DHT22;314;48.770;9.246;2022-07-23T06:19:34;25.30;74.20
664;DHT22;314;48.770;9.246;2022-07-23T06:22:00;25.30;73.00
664;DHT22;314;48.770;9.246;2022-07-23T06:24:26;25.30;73.00
664;DHT22;314;48.770;9.246;2022-07-23T06:26:52;25.40;73.00
664;DHT22;314;48.770;9.246;2022-07-23T06:29:17;25.50;73.50
664;DHT22;314;48.770;9.246;2022-07-23T06:31:43;25.60;71.30
664;DHT22;314;48.770;9.246;2022-07-23T06:34:09;25.80;71.20
664;DHT22;314;48.770;9.246;2022-07-23T06:36:35;25.90;69.90
664;DHT22;314;48.770;9.246;2022-07-23T06:39:01;26.00;69.90
664;DHT22;314;48.770;9.246;2022-07-23T06:41:26;26.10;69.50
664;DHT22;314;48.770;9.246;2022-07-23T06:43:52;26.20;69.90
664;DHT22;314;48.770;9.246;2022-07-23T06:46:18;26.20;66.00
664;DHT22;314;48.770;9.246;2022-07-23T06:48:44;26.10;67.60
664;DHT22;314;48.770;9.246;2022-07-23T06:51:10;26.10;66.00
664;DHT22;314;48.770;9.246;2022-07-23T06:53:35;26.00;66.20
664;DHT22;314;48.770;9.246;2022-07-23T06:56:01;25.90;67.00
664;DHT22;314;48.770;9.246;2022-07-23T06:58:27;25.90;66.70
664;DHT22;314;48.770;9.246;2022-07-23T07:00:53;25.90;66.90
664;DHT22;314;48.770;9.246;2022-07-23T07:03:18;25.80;65.90
664;DHT22;314;48.770;9.246;2022-07-23T07:05:45;25.70;66.00
664;DHT22;314;48.770;9.246;2022-07-23T07:08:11;25.50;67.00
664;DHT22;314;48.770;9.246;2022-07-23T07:10:37;25.40;66.70
664;DHT22;314;48.770;9.246;2022-07-23T07:13:02;25.40;66.90
664;DHT22;314;48.770;9.246;2022-07-23T07:15:28;25.30;67.10
664;DHT22;314;48.770;9.246;2022-07-23T07:17:54;25.10;68.50
664;DHT22;314;48.770;9.246;2022-07-23T07:20:20;24.90;68.90
664;DHT22;314;48.770;9.246;2022-07-23T07:22:45;24.90;69.10
664;DHT22;314;48.770;9.246;2022-07-23T07:25:11;24.90;68.90
664;DHT22;314;48.770;9.246;2022-07-23T07:27:37;24.80;69.40
664;DHT22;314;48.770;9.246;2022-07-23T07:30:04;24.70;69.80
664;DHT22;314;48.770;9.246;2022-07-23T07:32:30;24.60;70.30
664;DHT22;314;48.770;9.246;2022-07-23T07:34:58;24.60;70.90
664;DHT22;314;48.770;9.246;2022-07-23T07:37:24;24.60;71.20
664;DHT22;314;48.770;9.246;2022-07-23T07:42:18;24.50;71.90
664;DHT22;314;48.770;9.246;2022-07-23T07:44:43;24.50;74.20
664;DHT22;314;48.770;9.246;2022-07-23T07:47:09;24.40;74.20
664;DHT22;314;48.770;9.246;2022-07-23T07:49:35;24.50;75.60
664;DHT22;314;48.770;9.246;2022-07-23T07:52:01;24.50;74.80
664;DHT22;314;48.770;9.246;2022-07-23T07:54:27;24.60;76.90
664;DHT22;314;48.770;9.246;2022-07-23T07:56:53;24.80;74.50
664;DHT22;314;48.770;9.246;2022-07-23T07:59:19;25.00;73.50
664;DHT22;314;48.770;9.246;2022-07-23T08:01:44;25.10;72.70
664;DHT22;314;48.770;9.246;2022-07-23T08:04:10;25.10;73.50
664;DHT22;314;48.770;9.246;2022-07-23T08:06:36;24.90;74.10
664;DHT22;314;48.770;9.246;2022-07-23T08:09:03;24.70;75.50
664;DHT22;314;48.770;9.246;2022-07-23T08:11:29;24.80;73.10
664;DHT22;314;48.770;9.246;2022-07-23T08:13:55;25.00;73.50
664;DHT22;314;48.770;9.246;2022-07-23T08:16:21;25.20;71.20
664;DHT22;314;48.770;9.246;2022-07-23T08:18:47;25.30;70.60
664;DHT22;314;48.770;9.246;2022-07-23T08:21:13;25.40;69.50
664;DHT22;314;48.770;9.246;2022-07-23T08:23:39;25.60;69.10
664;DHT22;314;48.770;9.246;2022-07-23T08:26:05;25.50;68.50
664;DHT22;314;48.770;9.246;2022-07-23T08:28:30;25.50;69.10
664;DHT22;314;48.770;9.246;2022-07-23T08:30:59;25.40;69.80
664;DHT22;314;48.770;9.246;2022-07-23T08:33:26;25.30;70.10
664;DHT22;314;48.770;9.246;2022-07-23T08:35:52;25.10;71.00
664;DHT22;314;48.770;9.246;2022-07-23T08:38:22;25.00;71.00
664;DHT22;314;48.770;9.246;2022-07-23T08:40:53;25.00;71.30
664;DHT22;314;48.770;9.246;2022-07-23T08:43:26;25.00;71.20
664;DHT22;314;48.770;9.246;2022-07-23T08:45:54;25.00;73.10
664;DHT22;314;48.770;9.246;2022-07-23T08:48:30;25.10;73.00
664;DHT22;314;48.770;9.246;2022-07-23T08:50:58;25.20;73.40
664;DHT22;314;48.770;9.246;2022-07-23T08:53:25;25.30;71.70
664;DHT22;314;48.770;9.246;2022-07-23T08:55:57;25.50;70.30
664;DHT22;314;48.770;9.246;2022-07-23T08:58:24;25.60;69.80
664;DHT22;314;48.770;9.246;2022-07-23T09:00:50;25.90;68.50
664;DHT22;314;48.770;9.246;2022-07-23T09:05:42;26.50;67.80
664;DHT22;314;48.770;9.246;2022-07-23T09:08:19;26.60;66.90
664;DHT22;314;48.770;9.246;2022-07-23T09:10:58;26.90;64.80
664;DHT22;314;48.770;9.246;2022-07-23T09:13:36;27.00;63.30
664;DHT22;314;48.770;9.246;2022-07-23T09:16:17;27.10;63.40
664;DHT22;314;48.770;9.246;2022-07-23T09:18:56;27.20;62.40
664;DHT22;314;48.770;9.246;2022-07-23T09:21:30;27.30;62.40
664;DHT22;314;48.770;9.246;2022-07-23T09:23:58;27.60;61.90
664;DHT22;314;48.770;9.246;2022-07-23T09:26:30;28.00;60.30
664;DHT22;314;48.770;9.246;2022-07-23T09:31:25;28.30;60.50
664;DHT22;314;48.770;9.246;2022-07-23T09:33:51;28.70;59.20
664;DHT22;314;48.770;9.246;2022-07-23T09:36:30;29.00;58.40
664;DHT22;314;48.770;9.246;2022-07-23T09:38:56;29.30;56.40
664;DHT22;314;48.770;9.246;2022-07-23T09:41:22;29.30;58.00
664;DHT22;314;48.770;9.246;2022-07-23T09:43:55;29.50;56.60
664;DHT22;314;48.770;9.246;2022-07-23T09:46:22;29.70;54.90
664;DHT22;314;48.770;9.246;2022-07-23T09:48:55;29.90;54.10
664;DHT22;314;48.770;9.246;2022-07-23T09:51:24;30.20;53.40
664;DHT22;314;48.770;9.246;2022-07-23T09:53:53;30.30;52.80
664;DHT22;314;48.770;9.246;2022-07-23T09:56:20;30.50;51.20
664;DHT22;314;48.770;9.246;2022-07-23T09:58:49;30.60;50.80
664;DHT22;314;48.770;9.246;2022-07-23T10:01:16;30.50;49.10
664;DHT22;314;48.770;9.246;2022-07-23T10:03:42;30.50;49.90
664;DHT22;314;48.770;9.246;2022-07-23T10:06:13;30.70;49.60
664;DHT22;314;48.770;9.246;2022-07-23T10:08:41;30.90;49.40
664;DHT22;314;48.770;9.246;2022-07-23T10:11:09;31.20;49.60
664;DHT22;314;48.770;9.246;2022-07-23T10:13:35;31.20;49.40
664;DHT22;314;48.770;9.246;2022-07-23T10:16:16;31.30;47.90
664;DHT22;314;48.770;9.246;2022-07-23T10:18:42;30.90;49.50
664;DHT22;314;48.770;9.246;2022-07-23T10:21:10;30.80;48.80
664;DHT22;314;48.770;9.246;2022-07-23T10:37:22;31.20;49.00
664;DHT22;314;48.770;9.246;2022-07-23T10:40:24;31.30;49.50
664;DHT22;314;48.770;9.246;2022-07-23T10:42:51;31.40;49.90
664;DHT22;314;48.770;9.246;2022-07-23T10:45:32;31.30;47.90
664;DHT22;314;48.770;9.246;2022-07-23T10:48:19;31.30;49.00
664;DHT22;314;48.770;9.246;2022-07-23T10:51:11;31.50;48.80
664;DHT22;314;48.770;9.246;2022-07-23T10:59:20;32.30;47.00
664;DHT22;314;48.770;9.246;2022-07-23T11:01:46;32.00;46.90
664;DHT22;314;48.770;9.246;2022-07-23T11:04:12;32.00;47.40
664;DHT22;314;48.770;9.246;2022-07-23T11:09:38;31.80;47.50
664;DHT22;314;48.770;9.246;2022-07-23T11:15:10;31.90;47.40
664;DHT22;314;48.770;9.246;2022-07-23T11:17:40;31.70;48.10
664;DHT22;314;48.770;9.246;2022-07-23T11:20:24;31.60;49.00
664;DHT22;314;48.770;9.246;2022-07-23T11:22:58;31.50;47.40
664;DHT22;314;48.770;9.246;2022-07-23T11:27:51;31.80;48.70
664;DHT22;314;48.770;9.246;2022-07-23T11:30:46;32.10;46.90
664;DHT22;314;48.770;9.246;2022-07-23T11:35:41;32.50;46.70
664;DHT22;314;48.770;9.246;2022-07-23T11:38:19;32.40;46.90
664;DHT22;314;48.770;9.246;2022-07-23T11:40:50;31.90;47.80
664;DHT22;314;48.770;9.246;2022-07-23T11:43:17;31.60;49.90
664;DHT22;314;48.770;9.246;2022-07-23T11:45:45;31.70;48.30
664;DHT22;314;48.770;9.246;2022-07-23T11:48:25;31.70;48.80
664;DHT22;314;48.770;9.246;2022-07-23T11:50:53;31.50;48.10
664;DHT22;314;48.770;9.246;2022-07-23T11:53:37;31.50;48.40
664;DHT22;314;48.770;9.246;2022-07-23T11:56:11;31.30;48.40
664;DHT22;314;48.770;9.246;2022-07-23T11:58:37;30.90;49.80
664;DHT22;314;48.770;9.246;2022-07-23T12:01:04;30.80;49.40
664;DHT22;314;48.770;9.246;2022-07-23T12:03:30;30.80;49.50
664;DHT22;314;48.770;9.246;2022-07-23T12:05:59;30.80;49.20
664;DHT22;314;48.770;9.246;2022-07-23T12:08:26;31.10;49.10
664;DHT22;314;48.770;9.246;2022-07-23T12:10:51;31.50;48.60
664;DHT22;314;48.770;9.246;2022-07-23T12:13:19;31.80;47.90
664;DHT22;314;48.770;9.246;2022-07-23T12:15:48;31.70;47.00
664;DHT22;314;48.770;9.246;2022-07-23T12:18:21;31.60;48.40
664;DHT22;314;48.770;9.246;2022-07-23T12:20:49;31.60;48.20
664;DHT22;314;48.770;9.246;2022-07-23T12:23:17;31.90;47.80
664;DHT22;314;48.770;9.246;2022-07-23T12:25:45;32.10;47.50
664;DHT22;314;48.770;9.246;2022-07-23T12:28:13;32.40;48.20
664;DHT22;314;48.770;9.246;2022-07-23T12:30:44;32.60;47.90
664;DHT22;314;48.770;9.246;2022-07-23T12:33:15;32.70;46.10
664;DHT22;314;48.770;9.246;2022-07-23T12:35:46;32.80;46.20
664;DHT22;314;48.770;9.246;2022-07-23T12:38:15;32.80;46.00
664;DHT22;314;48.770;9.246;2022-07-23T12:40:43;32.40;47.10
664;DHT22;314;48.770;9.246;2022-07-23T12:43:18;32.00;47.30
664;DHT22;314;48.770;9.246;2022-07-23T12:45:50;31.90;47.80
664;DHT22;314;48.770;9.246;2022-07-23T12:51:14;31.90;47.00
664;DHT22;314;48.770;9.246;2022-07-23T12:53:45;32.00;47.30
664;DHT22;314;48.770;9.246;2022-07-23T12:56:29;32.30;46.10
664;DHT22;314;48.770;9.246;2022-07-23T12:59:09;32.60;47.00
664;DHT22;314;48.770;9.246;2022-07-23T13:01:43;32.70;46.20
664;DHT22;314;48.770;9.246;2022-07-23T13:04:23;32.60;46.10
664;DHT22;314;48.770;9.246;2022-07-23T13:06:57;32.50;46.10
664;DHT22;314;48.770;9.246;2022-07-23T13:09:26;32.40;47.40
664;DHT22;314;48.770;9.246;2022-07-23T13:11:54;32.50;46.10
664;DHT22;314;48.770;9.246;2022-07-23T13:14:21;32.40;46.30
664;DHT22;314;48.770;9.246;2022-07-23T13:16:51;32.20;47.90
664;DHT22;314;48.770;9.246;2022-07-23T13:19:18;32.20;47.70
664;DHT22;314;48.770;9.246;2022-07-23T13:21:45;32.20;47.00
664;DHT22;314;48.770;9.246;2022-07-23T13:24:12;32.40;47.70
664;DHT22;314;48.770;9.246;2022-07-23T13:26:38;32.60;46.20
664;DHT22;314;48.770;9.246;2022-07-23T13:29:05;32.60;46.10
664;DHT22;314;48.770;9.246;2022-07-23T13:31:31;32.70;45.60
664;DHT22;314;48.770;9.246;2022-07-23T13:33:57;32.90;43.70
664;DHT22;314;48.770;9.246;2022-07-23T13:36:23;33.00;44.40
664;DHT22;314;48.770;9.246;2022-07-23T13:38:49;33.20;46.20
664;DHT22;314;48.770;9.246;2022-07-23T13:41:17;33.40;44.30
664;DHT22;314;48.770;9.246;2022-07-23T13:43:43;33.20;44.10
664;DHT22;314;48.770;9.246;2022-07-23T13:46:09;33.20;45.00
664;DHT22;314;48.770;9.246;2022-07-23T13:48:35;32.90;45.30
664;DHT22;314;48.770;9.246;2022-07-23T13:51:01;33.00;45.20
664;DHT22;314;48.770;9.246;2022-07-23T13:53:26;33.20;44.50
664;DHT22;314;48.770;9.246;2022-07-23T13:55:53;33.50;44.80
664;DHT22;314;48.770;9.246;2022-07-23T13:58:20;33.70;43.90
664;DHT22;314;48.770;9.246;2022-07-23T14:00:50;33.60;44.00
664;DHT22;314;48.770;9.246;2022-07-23T14:03:17;33.20;45.00
664;DHT22;314;48.770;9.246;2022-07-23T14:05:43;33.50;44.60
664;DHT22;314;48.770;9.246;2022-07-23T14:08:09;33.70;45.20
664;DHT22;314;48.770;9.246;2022-07-23T14:10:35;34.00;44.40
664;DHT22;314;48.770;9.246;2022-07-23T14:13:01;34.30;43.30
664;DHT22;314;48.770;9.246;2022-07-23T14:15:28;34.40;42.60
664;DHT22;314;48.770;9.246;2022-07-23T14:17:55;34.10;43.60
664;DHT22;314;48.770;9.246;2022-07-23T14:20:22;33.60;44.80
664;DHT22;314;48.770;9.246;2022-07-23T14:22:48;33.10;45.40
664;DHT22;314;48.770;9.246;2022-07-23T14:25:16;32.90;46.10
664;DHT22;314;48.770;9.246;2022-07-23T14:27:42;32.80;46.30
664;DHT22;314;48.770;9.246;2022-07-23T14:30:08;32.60;46.50
664;DHT22;314;48.770;9.246;2022-07-23T14:32:35;32.60;46.20
664;DHT22;314;48.770;9.246;2022-07-23T14:35:01;32.50;46.00
664;DHT22;314;48.770;9.246;2022-07-23T14:37:27;32.30;46.70
664;DHT22;314;48.770;9.246;2022-07-23T14:39:53;32.30;46.20
664;DHT22;314;48.770;9.246;2022-07-23T14:42:19;32.30;46.20
664;DHT22;314;48.770;9.246;2022-07-23T14:44:45;32.30;46.50
664;DHT22;314;48.770;9.246;2022-07-23T14:47:11;32.00;46.50
664;DHT22;314;48.770;9.246;2022-07-23T14:49:37;32.10;46.50
664;DHT22;314;48.770;9.246;2022-07-23T14:52:14;32.20;45.40
664;DHT22;314;48.770;9.246;2022-07-23T14:54:40;32.30;46.00
664;DHT22;314;48.770;9.246;2022-07-23T14:57:05;32.40;45.00
664;DHT22;314;48.770;9.246;2022-07-23T14:59:33;32.30;45.80
664;DHT22;314;48.770;9.246;2022-07-23T15:01:59;32.30;46.10
664;DHT22;314;48.770;9.246;2022-07-23T15:04:25;32.60;45.70
664;DHT22;314;48.770;9.246;2022-07-23T15:06:51;33.00;43.50
664;DHT22;314;48.770;9.246;2022-07-23T15:09:16;33.40;43.70
664;DHT22;314;48.770;9.246;2022-07-23T15:11:42;33.70;43.50
664;DHT22;314;48.770;9.246;2022-07-23T15:14:09;33.90;43.50
664;DHT22;314;48.770;9.246;2022-07-23T15:16:34;34.30;41.80
664;DHT22;314;48.770;9.246;2022-07-23T15:19:01;34.40;40.10
664;DHT22;314;48.770;9.246;2022-07-23T15:21:27;34.20;40.10
664;DHT22;314;48.770;9.246;2022-07-23T15:23:55;34.00;41.20
664;DHT22;314;48.770;9.246;2022-07-23T15:26:25;34.10;41.80
664;DHT22;314;48.770;9.246;2022-07-23T15:28:50;34.10;42.80
664;DHT22;314;48.770;9.246;2022-07-23T15:31:16;34.20;41.10
664;DHT22;314;48.770;9.246;2022-07-23T15:33:42;34.10;42.30
664;DHT22;314;48.770;9.246;2022-07-23T15:36:08;34.00;41.80
664;DHT22;314;48.770;9.246;2022-07-23T15:38:34;34.00;40.20
664;DHT22;314;48.770;9.246;2022-07-23T15:41:00;34.20;41.10
664;DHT22;314;48.770;9.246;2022-07-23T15:43:26;34.40;40.60
664;DHT22;314;48.770;9.246;2022-07-23T15:45:53;34.20;40.50
664;DHT22;314;48.770;9.246;2022-07-23T15:48:20;34.10;41.20
664;DHT22;314;48.770;9.246;2022-07-23T15:50:46;33.90;41.80
664;DHT22;314;48.770;9.246;2022-07-23T15:53:13;34.10;41.10
664;DHT22;314;48.770;9.246;2022-07-23T15:55:39;34.10;41.40
664;DHT22;314;48.770;9.246;2022-07-23T15:58:05;34.10;41.80
664;DHT22;314;48.770;9.246;2022-07-23T16:00:31;34.50;42.20
664;DHT22;314;48.770;9.246;2022-07-23T16:02:57;34.60;40.70
664;DHT22;314;48.770;9.246;2022-07-23T16:05:23;34.50;40.30
664;DHT22;314;48.770;9.246;2022-07-23T16:07:49;34.40;41.60
664;DHT22;314;48.770;9.246;2022-07-23T16:10:14;34.50;40.60
664;DHT22;314;48.770;9.246;2022-07-23T16:12:40;34.30;40.60
664;DHT22;314;48.770;9.246;2022-07-23T16:15:06;34.30;41.10
664;DHT22;314;48.770;9.246;2022-07-23T16:17:32;34.10;40.80
664;DHT22;314;48.770;9.246;2022-07-23T16:19:58;33.90;41.60
664;DHT22;314;48.770;9.246;2022-07-23T16:22:24;33.80;41.50
664;DHT22;314;48.770;9.246;2022-07-23T16:24:50;33.90;42.20
664;DHT22;314;48.770;9.246;2022-07-23T16:27:16;34.00;41.80
664;DHT22;314;48.770;9.246;2022-07-23T16:29:41;34.10;41.60
664;DHT22;314;48.770;9.246;2022-07-23T16:32:07;34.00;41.10
664;DHT22;314;48.770;9.246;2022-07-23T16:34:33;33.80;42.20
664;DHT22;314;48.770;9.246;2022-07-23T16:36:59;33.90;42.30
664;DHT22;314;48.770;9.246;2022-07-23T16:39:25;33.80;42.30
664;DHT22;314;48.770;9.246;2022-07-23T16:41:51;33.30;43.30
664;DHT22;314;48.770;9.246;2022-07-23T16:44:17;32.80;44.80
664;DHT22;314;48.770;9.246;2022-07-23T16:46:42;32.30;45.40
664;DHT22;314;48.770;9.246;2022-07-23T16:49:09;32.00;46.30
664;DHT22;314;48.770;9.246;2022-07-23T16:51:35;31.80;47.10
664;DHT22;314;48.770;9.246;2022-07-23T16:54:01;31.80;47.00
664;DHT22;314;48.770;9.246;2022-07-23T16:56:27;31.80;46.70
664;DHT22;314;48.770;9.246;2022-07-23T16:58:53;31.60;47.40
664;DHT22;314;48.770;9.246;2022-07-23T17:01:19;31.50;48.70
664;DHT22;314;48.770;9.246;2022-07-23T17:03:45;31.30;49.50
664;DHT22;314;48.770;9.246;2022-07-23T17:06:11;31.40;50.70
664;DHT22;314;48.770;9.246;2022-07-23T17:08:36;31.80;49.50
664;DHT22;314;48.770;9.246;2022-07-23T17:11:03;31.80;48.80
664;DHT22;314;48.770;9.246;2022-07-23T17:13:29;31.60;49.50
664;DHT22;314;48.770;9.246;2022-07-23T17:15:55;31.40;50.00